Time;durP1;ratioP1;P1;durP2;ratioP2;P2;SDS_P1;SDS_P2;PMS_P1;PMS_P2;Temp;Humidity;BMP_temperature;BMP_pressure;BME280_temperature;BME280_humidity;BME280_pressure;Samples;Min_cycle;Max_cycle;Signal;HPM_P1;HPM_P2
2023/02/23 00:01:41;;;;;;;11.40;4.80;;;5.20;99.90;5.00;100269.00;;;;4928711;28;117267;-68
2023/02/23 00:04:17;;;;;;;5.80;3.70;;;5.20;99.90;5.00;100265.00;;;;4929838;28;88905;-68
2023/02/23 00:06:43;;;;;;;10.97;4.83;;;5.20;99.90;5.00;100273.00;;;;4929354;28;87244;-68
2023/02/23 00:09:21;;;;;;;5.00;3.57;;;5.20;99.90;5.00;100268.00;;;;4925719;28;100272;-67
2023/02/23 00:11:52;;;;;;;4.93;3.53;;;5.10;99.90;5.00;100259.00;;;;4927291;28;88209;-67
2023/02/23 00:14:18;;;;;;;6.53;4.23;;;5.20;99.90;5.00;100254.00;;;;4927684;28;89047;-67
2023/02/23 00:16:44;;;;;;;9.00;3.87;;;5.20;99.90;4.90;100258.00;;;;4923385;28;110908;-70
2023/02/23 00:19:12;;;;;;;9.50;4.67;;;4.70;99.90;5.00;100256.00;;;;4912463;28;87995;-67
2023/02/23 00:21:39;;;;;;;7.20;4.63;;;5.10;99.90;4.90;100254.00;;;;4929838;28;88281;-67
2023/02/23 00:24:14;;;;;;;9.37;4.63;;;5.40;99.90;4.90;100251.00;;;;4924589;28;103450;-67
2023/02/23 00:26:44;;;;;;;9.13;5.13;;;5.20;99.90;4.90;100258.00;;;;4928223;28;87848;-67
2023/02/23 00:29:19;;;;;;;7.47;4.97;;;5.10;99.90;4.90;100252.00;;;;4928653;28;88073;-69
2023/02/23 00:31:45;;;;;;;5.40;3.83;;;5.80;99.90;4.90;100258.00;;;;4925204;28;87814;-69
2023/02/23 00:34:14;;;;;;;6.50;4.13;;;4.90;99.90;4.90;100249.00;;;;4913546;28;88083;-69
2023/02/23 00:36:41;;;;;;;5.20;4.03;;;5.00;99.90;4.90;100252.00;;;;4928361;28;88076;-69
2023/02/23 00:39:20;;;;;;;6.57;4.13;;;5.10;99.90;4.80;100255.00;;;;4925016;28;95887;-67
2023/02/23 00:41:51;;;;;;;8.93;5.53;;;5.00;99.90;4.90;100249.00;;;;4912999;28;89825;-68
2023/02/23 00:44:17;;;;;;;7.97;4.40;;;4.90;99.90;4.80;100259.00;;;;4929214;28;88598;-67
2023/02/23 00:46:44;;;;;;;15.73;4.70;;;5.00;99.90;4.80;100255.00;;;;4927266;28;88165;-69
2023/02/23 00:49:12;;;;;;;9.90;5.90;;;5.00;99.90;4.80;100258.00;;;;4930176;28;87949;-69
2023/02/23 00:51:38;;;;;;;9.33;5.00;;;5.00;99.90;4.80;100253.00;;;;4927503;28;88408;-71
2023/02/23 00:54:05;;;;;;;9.43;5.07;;;5.70;99.90;4.80;100253.00;;;;4910943;28;87905;-71
2023/02/23 00:56:31;;;;;;;6.63;4.83;;;5.00;99.90;4.80;100254.00;;;;4926565;28;86860;-71
2023/02/23 00:58:56;;;;;;;8.47;5.70;;;5.00;99.90;4.80;100261.00;;;;4929087;28;88224;-72
2023/02/23 01:01:23;;;;;;;5.20;4.63;;;5.00;99.90;4.70;100248.00;;;;4910834;28;118391;-71
2023/02/23 01:03:49;;;;;;;8.07;5.73;;;4.90;99.90;4.70;100260.00;;;;4926634;28;88875;-70
2023/02/23 01:06:16;;;;;;;8.73;4.93;;;4.90;99.90;4.70;100250.00;;;;4925751;28;88146;-70
2023/02/23 01:08:49;;;;;;;8.83;5.27;;;4.90;99.90;4.70;100245.00;;;;4916103;28;87795;-71
2023/02/23 01:11:20;;;;;;;7.87;4.90;;;5.80;99.90;4.70;100248.00;;;;4908602;28;88136;-69
2023/02/23 01:13:48;;;;;;;8.93;5.13;;;4.90;99.90;4.70;100243.00;;;;4923372;28;90129;-70
2023/02/23 01:16:16;;;;;;;7.10;5.67;;;4.80;99.90;4.70;100248.00;;;;4926324;28;87916;-69
2023/02/23 01:18:44;;;;;;;6.53;5.10;;;4.90;99.90;4.70;100242.00;;;;4928682;28;95842;-69
2023/02/23 01:21:37;;;;;;;9.30;4.87;;;4.90;99.90;4.70;100244.00;;;;4890056;28;89735;-70
2023/02/23 01:24:04;;;;;;;11.47;5.70;;;4.80;99.90;4.60;100243.00;;;;4927998;28;108163;-71
2023/02/23 01:26:34;;;;;;;5.73;3.73;;;4.90;99.90;4.70;100247.00;;;;4928826;28;88081;-69
2023/02/23 01:29:10;;;;;;;13.60;5.90;;;4.80;99.90;4.60;100240.00;;;;4925863;28;88864;-70
2023/02/23 01:31:39;;;;;;;8.80;4.83;;;5.00;99.90;4.60;100245.00;;;;4927220;28;110270;-71
2023/02/23 01:34:06;;;;;;;7.67;5.07;;;4.90;99.90;4.60;100234.00;;;;4928731;28;88511;-69
2023/02/23 01:36:35;;;;;;;7.43;4.77;;;4.80;99.90;4.60;100243.00;;;;4908717;28;88245;-71
2023/02/23 01:39:06;;;;;;;11.13;7.20;;;4.70;99.90;4.60;100233.00;;;;4907502;28;88060;-72
2023/02/23 01:41:34;;;;;;;7.40;5.07;;;4.80;99.90;4.60;100243.00;;;;4909401;28;88102;-72
2023/02/23 01:44:27;;;;;;;16.83;5.43;;;4.80;99.90;4.60;100232.00;;;;4927789;28;88486;-71
2023/02/23 01:46:53;;;;;;;8.87;5.50;;;4.70;99.90;4.60;100233.00;;;;4932224;28;87307;-71
2023/02/23 01:49:27;;;;;;;8.83;5.73;;;5.50;99.90;4.50;100232.00;;;;4931325;28;108990;-71
2023/02/23 01:52:01;;;;;;;8.13;5.60;;;4.70;99.90;4.50;100228.00;;;;4925580;28;87987;-71
2023/02/23 01:54:35;;;;;;;10.90;5.33;;;4.70;99.90;4.50;100222.00;;;;4931381;28;89555;-69
2023/02/23 01:57:03;;;;;;;6.17;4.77;;;5.10;99.90;4.50;100224.00;;;;4933453;28;87881;-69
2023/02/23 01:59:38;;;;;;;6.40;5.23;;;4.70;99.90;4.50;100226.00;;;;4928704;28;88138;-69
2023/02/23 02:02:04;;;;;;;11.67;5.27;;;4.70;99.90;4.50;100220.00;;;;4930940;28;110761;-69
2023/02/23 02:04:43;;;;;;;8.37;5.50;;;4.70;99.90;4.50;100221.00;;;;4929384;28;91278;-69
2023/02/23 02:07:21;;;;;;;11.53;5.57;;;4.60;99.90;4.50;100215.00;;;;4926953;28;88342;-69
2023/02/23 02:10:55;;;;;;;10.57;5.40;;;4.70;99.90;4.50;100203.00;;;;4918888;28;88061;-69
2023/02/23 02:12:54;;;;;;;7.57;5.20;;;4.60;99.90;4.40;100210.00;;;;4914510;28;88386;-69
2023/02/23 02:15:24;;;;;;;10.73;5.20;;;4.70;99.90;4.40;100209.00;;;;4929368;28;88343;-70
2023/02/23 02:17:56;;;;;;;10.37;6.20;;;4.60;99.90;4.40;100211.00;;;;4918363;28;88095;-71
2023/02/23 02:21:10;;;;;;;9.27;6.40;;;4.60;99.90;4.30;100197.00;;;;4929639;28;89119;-71
2023/02/23 02:23:54;;;;;;;10.30;5.67;;;4.60;99.90;4.30;100193.00;;;;4931089;28;89508;-72
2023/02/23 02:26:41;;;;;;;8.60;6.00;;;4.60;99.90;4.30;100192.00;;;;4928962;28;89043;-71
2023/02/23 02:29:31;;;;;;;12.20;5.27;;;4.60;99.90;4.30;100199.00;;;;4892436;28;87894;-71
2023/02/23 02:32:30;;;;;;;8.00;5.97;;;4.60;99.90;4.30;100210.00;;;;4931613;28;87913;-71
2023/02/23 02:35:41;;;;;;;14.13;5.73;;;4.60;99.90;4.30;100200.00;;;;4909465;28;105366;-71
2023/02/23 02:38:55;;;;;;;8.97;5.27;;;4.50;99.90;4.30;100207.00;;;;4896459;28;89740;-72
2023/02/23 02:41:52;;;;;;;9.30;5.67;;;4.50;99.90;4.20;100202.00;;;;4902764;28;87205;-71
2023/02/23 02:44:27;;;;;;;6.53;5.07;;;4.50;99.90;4.30;100204.00;;;;4909249;28;89090;-71
2023/02/23 02:47:00;;;;;;;8.07;5.57;;;4.50;99.90;4.30;100202.00;;;;4913825;28;106551;-71
2023/02/23 02:49:49;;;;;;;13.23;5.90;;;4.50;99.90;4.30;100195.00;;;;4928730;28;112858;-71
2023/02/23 02:52:27;;;;;;;6.83;5.27;;;4.50;99.90;4.30;100204.00;;;;4928618;28;104660;-71
2023/02/23 02:55:04;;;;;;;8.23;5.43;;;4.50;99.90;4.30;100203.00;;;;4931211;28;98149;-71
2023/02/23 02:57:32;;;;;;;8.17;5.93;;;4.50;99.90;4.40;100194.00;;;;4929819;28;88250;-72
2023/02/23 04:18:57;;;;;;;15.53;5.60;;;4.80;99.90;4.60;100160.00;;;;4926740;28;117777;-69
2023/02/23 04:21:23;;;;;;;7.83;5.07;;;4.80;99.90;4.60;100166.00;;;;4926333;28;117861;-69
2023/02/23 04:23:48;;;;;;;8.93;5.50;;;4.80;99.90;4.70;100165.00;;;;4926527;28;110554;-69
2023/02/23 04:26:14;;;;;;;12.17;6.00;;;4.90;99.90;4.70;100155.00;;;;4923371;28;108581;-69
2023/02/23 04:28:40;;;;;;;8.97;4.70;;;4.80;99.90;4.70;100155.00;;;;4929457;28;116884;-69
2023/02/23 04:31:05;;;;;;;11.50;6.10;;;4.90;99.90;4.70;100159.00;;;;4925382;28;116813;-69
2023/02/23 04:33:31;;;;;;;10.90;6.20;;;5.00;99.90;4.70;100157.00;;;;4929930;28;109875;-69
2023/02/23 04:35:56;;;;;;;9.23;5.53;;;5.00;99.90;4.70;100151.00;;;;4927398;28;106789;-69
2023/02/23 04:38:22;;;;;;;9.77;4.77;;;4.80;99.90;4.70;100156.00;;;;4924562;28;118012;-69
2023/02/23 04:40:48;;;;;;;6.10;4.77;;;4.80;99.90;4.70;100159.00;;;;4925169;28;117363;-69
2023/02/23 04:43:14;;;;;;;10.50;5.57;;;4.80;99.90;4.70;100164.00;;;;4927350;28;87965;-69
2023/02/23 04:45:40;;;;;;;8.53;4.93;;;4.80;99.90;4.60;100155.00;;;;4929422;28;107299;-69
2023/02/23 04:48:06;;;;;;;8.07;4.83;;;4.80;99.90;4.60;100160.00;;;;4927664;28;88128;-69
2023/02/23 04:50:33;;;;;;;9.17;5.60;;;4.70;99.90;4.60;100155.00;;;;4926871;28;89489;-69
2023/02/23 04:52:58;;;;;;;8.10;4.40;;;4.80;99.90;4.60;100150.00;;;;4926577;28;109692;-69
2023/02/23 04:55:25;;;;;;;7.93;5.43;;;4.70;99.90;4.60;100152.00;;;;4929354;28;108228;-69
2023/02/23 04:57:56;;;;;;;9.27;5.53;;;4.80;99.90;4.60;100156.00;;;;4927966;28;88630;-69
2023/02/23 05:00:22;;;;;;;10.23;5.13;;;4.80;99.90;4.60;100147.00;;;;4923533;28;87773;-69
2023/02/23 05:02:48;;;;;;;13.60;5.90;;;4.70;99.90;4.60;100148.00;;;;4925121;28;109976;-69
2023/02/23 05:05:13;;;;;;;6.53;5.50;;;4.70;99.90;4.50;100159.00;;;;4924253;28;107369;-69
2023/02/23 05:07:39;;;;;;;9.20;5.07;;;4.70;99.90;4.60;100152.00;;;;4909820;28;89768;-69
2023/02/23 05:10:08;;;;;;;9.53;5.00;;;5.30;99.90;4.60;100159.00;;;;4925582;28;118077;-69
2023/02/23 05:12:34;;;;;;;8.87;5.13;;;4.80;99.90;4.60;100165.00;;;;4925999;28;87867;-69
2023/02/23 05:15:00;;;;;;;10.73;5.60;;;4.80;99.90;4.60;100165.00;;;;4929562;28;99382;-69
2023/02/23 05:17:25;;;;;;;11.73;5.80;;;4.70;99.90;4.60;100159.00;;;;4925526;28;117769;-69
2023/02/23 05:19:52;;;;;;;9.43;5.40;;;4.80;99.90;4.70;100155.00;;;;4928427;28;90676;-69
2023/02/23 05:22:18;;;;;;;9.80;5.70;;;4.80;99.90;4.70;100159.00;;;;4926825;28;86796;-69
2023/02/23 05:24:43;;;;;;;12.33;5.73;;;4.90;99.90;4.70;100150.00;;;;4912260;28;88074;-69
2023/02/23 05:27:12;;;;;;;8.60;5.57;;;4.90;99.90;4.80;100147.00;;;;4922010;28;117773;-69
2023/02/23 05:29:38;;;;;;;7.80;5.67;;;5.30;99.90;4.80;100152.00;;;;4924017;28;88844;-69
2023/02/23 05:32:04;;;;;;;6.63;4.67;;;4.90;99.90;4.80;100144.00;;;;4925835;28;95111;-69
2023/02/23 05:34:30;;;;;;;10.30;5.77;;;5.00;99.90;4.80;100149.00;;;;4929555;28;100254;-70
2023/02/23 05:36:55;;;;;;;9.17;6.27;;;5.00;99.90;4.80;100138.00;;;;4930596;28;116250;-69
2023/02/23 05:39:21;;;;;;;8.87;5.43;;;5.00;99.90;4.80;100148.00;;;;4926196;28;117336;-69
2023/02/23 05:41:46;;;;;;;9.03;5.67;;;5.00;99.90;4.80;100152.00;;;;4924742;28;97284;-69
2023/02/23 05:44:12;;;;;;;7.33;5.20;;;5.10;99.90;4.80;100149.00;;;;4930193;28;109028;-69
2023/02/23 05:46:38;;;;;;;13.70;5.37;;;5.70;99.90;4.80;100151.00;;;;4925710;28;117389;-69
2023/02/23 05:49:04;;;;;;;12.37;6.93;;;4.90;99.90;4.70;100154.00;;;;4928879;28;112104;-69
2023/02/23 05:51:33;;;;;;;8.20;5.37;;;4.80;99.90;4.70;100160.00;;;;4928831;28;110479;-69
2023/02/23 05:53:59;;;;;;;10.17;5.60;;;4.90;99.90;4.70;100157.00;;;;4929541;28;89636;-69
2023/02/23 05:56:26;;;;;;;14.47;5.97;;;4.90;99.90;4.60;100163.00;;;;4925940;28;110737;-69
2023/02/23 05:58:56;;;;;;;6.63;5.07;;;4.90;99.90;4.60;100160.00;;;;4926194;28;88201;-69
2023/02/23 06:01:22;;;;;;;8.70;5.47;;;5.00;99.90;4.60;100153.00;;;;4908452;28;88015;-69
2023/02/23 06:03:54;;;;;;;11.03;6.60;;;4.70;99.90;4.50;100155.00;;;;4927365;28;100902;-69
2023/02/23 06:06:21;;;;;;;8.87;5.43;;;4.70;99.90;4.50;100148.00;;;;4927847;28;88989;-69
2023/02/23 06:08:47;;;;;;;10.40;5.70;;;4.70;99.90;4.40;100154.00;;;;4927767;28;88267;-69
2023/02/23 06:11:13;;;;;;;10.40;5.50;;;4.60;99.90;4.40;100157.00;;;;4925994;28;87237;-70
2023/02/23 06:13:39;;;;;;;9.03;5.93;;;4.60;99.90;4.40;100151.00;;;;4924767;28;109510;-69
2023/02/23 06:16:07;;;;;;;9.50;6.13;;;4.50;99.90;4.30;100154.00;;;;4927317;28;88476;-69
2023/02/23 06:18:32;;;;;;;9.73;5.87;;;4.50;99.90;4.30;100153.00;;;;4913721;28;89320;-69
2023/02/23 06:21:00;;;;;;;10.90;5.87;;;4.50;99.90;4.30;100156.00;;;;4926659;28;110602;-69
2023/02/23 06:23:30;;;;;;;9.37;5.47;;;4.50;99.90;4.30;100157.00;;;;4909670;28;88065;-69
2023/02/23 06:25:56;;;;;;;8.70;5.80;;;4.50;99.90;4.30;100151.00;;;;4926347;28;89044;-70
2023/02/23 06:28:22;;;;;;;12.87;6.50;;;4.50;99.90;4.30;100155.00;;;;4925966;28;88888;-69
2023/02/23 06:30:51;;;;;;;12.23;5.57;;;4.40;99.90;4.30;100161.00;;;;4928969;28;111263;-69
2023/02/23 06:33:17;;;;;;;7.83;5.47;;;4.50;99.90;4.30;100165.00;;;;4930153;28;90853;-69
2023/02/23 06:35:43;;;;;;;8.00;5.73;;;4.50;99.90;4.20;100166.00;;;;4931804;28;87339;-69
2023/02/23 06:38:09;;;;;;;7.73;5.10;;;4.40;99.90;4.30;100170.00;;;;4930543;28;88019;-69
2023/02/23 06:40:34;;;;;;;9.07;5.30;;;4.50;99.90;4.30;100170.00;;;;4925284;28;111323;-69
2023/02/23 06:43:02;;;;;;;7.93;6.23;;;4.50;99.90;4.30;100175.00;;;;4909032;28;106949;-70
2023/02/23 06:45:28;;;;;;;14.73;5.80;;;4.60;99.90;4.30;100174.00;;;;4927973;28;89915;-69
2023/02/23 06:47:54;;;;;;;9.27;5.67;;;4.50;99.90;4.30;100177.00;;;;4911112;28;111025;-69
2023/02/23 06:50:20;;;;;;;11.03;6.47;;;4.50;99.90;4.30;100178.00;;;;4926478;28;110514;-69
2023/02/23 06:52:55;;;;;;;11.77;7.33;;;4.50;99.90;4.30;100176.00;;;;4929270;28;87995;-70
2023/02/23 06:55:21;;;;;;;9.47;5.63;;;4.50;99.90;4.30;100185.00;;;;4917223;28;88779;-69
2023/02/23 06:57:52;;;;;;;8.03;6.33;;;4.50;99.90;4.40;100184.00;;;;4928736;28;115962;-69
2023/02/23 07:00:18;;;;;;;15.37;6.87;;;4.60;99.90;4.50;100196.00;;;;4930502;28;86915;-69
2023/02/23 07:02:44;;;;;;;7.77;6.43;;;4.70;99.90;4.50;100190.00;;;;4929988;28;99798;-69
2023/02/23 07:05:10;;;;;;;15.90;5.43;;;4.70;99.90;4.60;100197.00;;;;4930157;28;88689;-69
2023/02/23 07:07:37;;;;;;;9.63;6.57;;;4.80;99.90;4.60;100190.00;;;;4927293;28;115420;-69
2023/02/23 07:10:04;;;;;;;13.37;6.63;;;4.90;99.90;4.60;100199.00;;;;4912265;28;87934;-69
2023/02/23 07:12:30;;;;;;;10.27;7.27;;;4.80;99.90;4.70;100196.00;;;;4924678;28;87897;-69
2023/02/23 07:14:56;;;;;;;10.80;6.57;;;4.90;99.90;4.70;100195.00;;;;4930084;28;102953;-69
2023/02/23 07:17:22;;;;;;;8.43;5.00;;;4.90;99.90;4.80;100190.00;;;;4928080;28;117838;-69
2023/02/23 07:19:48;;;;;;;9.20;5.83;;;4.90;99.90;4.80;100192.00;;;;4926712;28;87702;-69
2023/02/23 07:22:14;;;;;;;7.53;5.83;;;5.00;99.90;4.80;100183.00;;;;4928848;28;109029;-69
2023/02/23 07:24:39;;;;;;;10.53;7.50;;;4.90;99.90;4.90;100204.00;;;;4930128;28;117763;-69
2023/02/23 07:27:05;;;;;;;15.23;7.73;;;5.00;99.90;5.00;100192.00;;;;4927065;28;115728;-69
2023/02/23 07:29:31;;;;;;;8.23;5.00;;;5.10;99.90;5.00;100191.00;;;;4929674;28;88094;-69
2023/02/23 07:31:56;;;;;;;10.70;6.67;;;5.10;99.90;5.10;100185.00;;;;4927319;28;108303;-69
2023/02/23 07:34:22;;;;;;;8.97;5.83;;;5.30;99.90;5.10;100189.00;;;;4931218;28;109481;-69
2023/02/23 07:36:48;;;;;;;12.30;6.77;;;5.30;99.90;5.20;100184.00;;;;4932615;28;88720;-69
2023/02/23 07:39:13;;;;;;;12.80;6.90;;;5.30;99.90;5.30;100201.00;;;;4929620;28;111220;-69
2023/02/23 07:41:39;;;;;;;10.87;6.47;;;6.00;99.90;5.30;100201.00;;;;4929110;28;88281;-69
2023/02/23 07:44:05;;;;;;;10.23;6.53;;;5.50;99.90;5.40;100210.00;;;;4929230;28;117088;-68
2023/02/23 07:46:31;;;;;;;10.03;6.23;;;5.60;99.90;5.50;100195.00;;;;4929854;28;98690;-69
2023/02/23 07:48:56;;;;;;;7.07;6.33;;;6.10;99.90;5.60;100199.00;;;;4928581;28;110015;-69
2023/02/23 07:51:22;;;;;;;10.63;6.97;;;6.30;99.90;5.80;100190.00;;;;4929695;28;94374;-69
2023/02/23 07:53:48;;;;;;;11.10;7.30;;;6.00;99.90;5.90;100197.00;;;;4929087;28;117498;-69
2023/02/23 07:56:14;;;;;;;12.77;7.10;;;6.60;99.90;6.00;100199.00;;;;4928631;28;88822;-69
2023/02/23 07:58:42;;;;;;;12.10;7.73;;;6.00;99.90;6.10;100193.00;;;;4929168;28;110190;-69
2023/02/23 08:01:11;;;;;;;13.73;7.70;;;6.30;99.90;6.30;100201.00;;;;4912586;28;87965;-69
2023/02/23 08:03:37;;;;;;;17.17;11.03;;;6.30;99.90;6.50;100203.00;;;;4926808;28;88973;-68
2023/02/23 08:06:03;;;;;;;29.33;17.63;;;7.00;99.90;6.70;100201.00;;;;4927986;28;88955;-69
2023/02/23 08:08:29;;;;;;;24.70;14.87;;;6.80;99.90;6.90;100201.00;;;;4930188;28;105871;-68
2023/02/23 08:11:03;;;;;;;30.13;15.60;;;7.40;99.90;7.10;100199.00;;;;4928491;28;108902;-69
2023/02/23 08:13:31;;;;;;;20.77;12.97;;;7.10;99.90;7.30;100204.00;;;;4926802;28;87758;-69
2023/02/23 08:15:57;;;;;;;14.20;9.63;;;7.80;99.90;7.50;100210.00;;;;4924836;28;115192;-68
2023/02/23 08:18:23;;;;;;;12.80;9.37;;;7.80;99.90;7.80;100209.00;;;;4937830;28;87793;-69
2023/02/23 08:20:49;;;;;;;45.43;21.33;;;7.80;99.90;8.00;100212.00;;;;4897311;28;96164;-69
2023/02/23 08:23:18;;;;;;;27.43;17.27;;;8.00;99.90;8.20;100204.00;;;;4929209;28;92163;-69
2023/02/23 08:25:44;;;;;;;19.17;10.20;;;8.10;99.90;8.40;100208.00;;;;4926752;28;87901;-69
2023/02/23 08:28:09;;;;;;;14.47;8.40;;;8.40;99.90;8.50;100203.00;;;;4929761;28;87770;-69
2023/02/23 08:30:35;;;;;;;13.43;8.20;;;8.60;99.90;8.60;100214.00;;;;4928337;28;101238;-68
2023/02/23 08:33:01;;;;;;;11.67;7.23;;;8.70;99.90;8.80;100212.00;;;;4924429;28;117774;-68
2023/02/23 08:35:28;;;;;;;11.23;7.23;;;8.80;99.90;8.90;100209.00;;;;4924904;28;113800;-69
2023/02/23 08:37:56;;;;;;;12.93;7.47;;;9.00;99.90;9.10;100213.00;;;;4928351;28;87070;-69
2023/02/23 08:40:22;;;;;;;12.53;6.53;;;9.10;99.90;9.20;100212.00;;;;4908694;28;88078;-69
2023/02/23 08:42:48;;;;;;;8.53;6.83;;;9.20;99.90;9.30;100207.00;;;;4924894;28;117440;-68
2023/02/23 08:45:14;;;;;;;11.73;8.07;;;9.40;99.90;9.40;100206.00;;;;4927878;28;89024;-69
2023/02/23 08:47:40;;;;;;;11.33;8.10;;;9.40;99.90;9.50;100209.00;;;;4928182;28;110633;-69
2023/02/23 08:50:09;;;;;;;10.60;7.07;;;9.50;99.90;9.70;100209.00;;;;4927304;28;87843;-68
2023/02/23 08:52:36;;;;;;;10.13;7.27;;;9.70;99.90;9.80;100211.00;;;;4928154;28;88212;-68
2023/02/23 08:55:02;;;;;;;12.00;7.47;;;9.80;99.90;9.90;100215.00;;;;4927660;28;96061;-68
2023/02/23 08:57:28;;;;;;;14.57;8.57;;;9.90;99.90;10.00;100208.00;;;;4926224;28;101777;-68
2023/02/23 08:59:53;;;;;;;16.63;8.40;;;10.10;99.90;10.20;100204.00;;;;4927664;28;87903;-68
2023/02/23 09:02:20;;;;;;;15.83;9.93;;;10.20;99.90;10.40;100214.00;;;;4923632;28;118414;-68
2023/02/23 09:04:45;;;;;;;15.40;9.70;;;10.30;99.90;10.50;100215.00;;;;4924267;28;88070;-67
2023/02/23 09:07:16;;;;;;;14.83;8.97;;;10.50;99.90;10.80;100224.00;;;;4925330;28;110021;-69
2023/02/23 09:09:42;;;;;;;13.57;8.63;;;10.80;99.90;11.00;100211.00;;;;4925978;28;89154;-68
2023/02/23 09:12:08;;;;;;;13.43;7.20;;;10.90;99.90;11.20;100217.00;;;;4922449;28;116823;-67
2023/02/23 09:14:34;;;;;;;13.03;7.00;;;11.20;99.90;11.50;100204.00;;;;4925202;28;118511;-68
2023/02/23 09:17:01;;;;;;;12.57;8.00;;;11.40;99.90;11.80;100209.00;;;;4922392;28;87799;-67
2023/02/23 09:19:26;;;;;;;11.33;7.70;;;11.70;99.90;12.00;100207.00;;;;4927522;28;102066;-67
2023/02/23 09:21:52;;;;;;;14.20;7.43;;;12.00;99.90;12.30;100216.00;;;;4924515;28;118204;-68
2023/02/23 09:24:20;;;;;;;7.03;4.97;;;12.20;99.90;12.60;100209.00;;;;4924671;28;115361;-67
2023/02/23 09:26:47;;;;;;;8.80;6.83;;;12.40;99.90;12.80;100221.00;;;;4925879;28;87192;-70
2023/02/23 09:29:12;;;;;;;9.87;4.93;;;12.70;99.90;12.90;100222.00;;;;4924593;28;88185;-68
2023/02/23 09:31:39;;;;;;;9.43;5.60;;;12.90;99.90;13.00;100217.00;;;;4921312;28;118035;-67
2023/02/23 09:34:04;;;;;;;9.03;5.20;;;13.00;99.90;13.00;100221.00;;;;4923719;28;103809;-68
2023/02/23 09:36:31;;;;;;;10.53;5.83;;;13.50;99.90;13.10;100230.00;;;;4927511;28;104962;-68
2023/02/23 09:38:57;;;;;;;6.73;5.27;;;13.10;99.90;13.20;100227.00;;;;4927357;28;87563;-68
2023/02/23 09:41:49;;;;;;;10.53;4.83;;;13.10;99.90;13.10;100231.00;;;;4909702;28;88222;-69
2023/02/23 09:44:39;;;;;;;11.13;5.47;;;12.90;99.90;13.10;100230.00;;;;4923830;28;88062;-68
2023/02/23 09:47:31;;;;;;;8.83;5.23;;;13.10;99.90;13.10;100227.00;;;;4926399;28;102927;-70
2023/02/23 09:50:02;;;;;;;6.07;4.70;;;13.10;99.90;13.20;100230.00;;;;4908139;28;88105;-70
2023/02/23 09:52:38;;;;;;;9.10;5.53;;;13.20;99.90;13.20;100229.00;;;;4914739;28;87361;-68
2023/02/23 09:55:05;;;;;;;10.60;4.70;;;13.30;99.90;13.30;100232.00;;;;4926432;28;87805;-71
2023/02/23 09:57:39;;;;;;;7.77;4.77;;;13.20;99.90;13.30;100226.00;;;;4916907;28;87850;-69
2023/02/23 10:00:24;;;;;;;7.93;5.17;;;13.30;99.90;13.30;100228.00;;;;4913197;28;88840;-68
2023/02/23 10:03:33;;;;;;;5.93;4.77;;;13.30;99.90;13.30;100219.00;;;;4911385;28;87868;-68
2023/02/23 10:06:05;;;;;;;12.43;5.73;;;13.30;99.90;13.30;100237.00;;;;4927070;28;87982;-70
2023/02/23 10:09:03;;;;;;;7.47;4.93;;;13.20;99.90;13.30;100228.00;;;;4931523;28;100783;-69
2023/02/23 10:11:45;;;;;;;6.03;4.63;;;13.30;99.90;13.40;100232.00;;;;4931495;28;88275;-69
2023/02/23 10:14:51;;;;;;;8.33;4.73;;;13.30;99.90;13.30;100232.00;;;;4910990;28;105455;-68
2023/02/23 10:17:45;;;;;;;7.73;5.23;;;13.40;99.90;13.30;100232.00;;;;4897181;28;90470;-68
2023/02/23 10:20:24;;;;;;;6.27;4.37;;;13.30;99.90;13.20;100225.00;;;;4932229;28;95466;-69
2023/02/23 10:22:53;;;;;;;11.77;6.30;;;13.30;99.90;13.20;100228.00;;;;4914107;28;87891;-68
2023/02/23 10:25:24;;;;;;;9.47;5.00;;;13.20;99.90;13.20;100233.00;;;;4911533;28;116393;-70
2023/02/23 10:27:59;;;;;;;8.20;5.00;;;13.20;99.90;13.20;100231.00;;;;4928703;28;88841;-68
2023/02/23 10:30:28;;;;;;;7.07;4.60;;;13.20;99.90;13.20;100231.00;;;;4929393;28;87837;-68
2023/02/23 10:33:26;;;;;;;11.80;5.07;;;13.20;99.90;13.20;100233.00;;;;4929572;28;87875;-69
2023/02/23 10:35:59;;;;;;;8.67;4.70;;;13.20;99.90;13.30;100232.00;;;;4911786;28;107352;-71
2023/02/23 10:38:24;;;;;;;8.03;5.10;;;13.30;99.90;13.30;100227.00;;;;4927129;28;90071;-69
2023/02/23 10:40:56;;;;;;;9.47;4.73;;;13.30;99.90;13.30;100225.00;;;;4931005;28;109497;-69
2023/02/23 10:43:22;;;;;;;8.87;4.87;;;13.30;99.90;13.30;100232.00;;;;4928100;28;93585;-69
2023/02/23 10:45:51;;;;;;;7.33;5.50;;;13.30;99.90;13.30;100230.00;;;;4929825;28;115838;-71
2023/02/23 10:48:24;;;;;;;6.33;4.57;;;13.30;99.90;13.30;100225.00;;;;4931662;28;115280;-71
2023/02/23 10:51:03;;;;;;;9.80;6.27;;;13.30;99.90;13.30;100223.00;;;;4915643;28;88000;-69
2023/02/23 10:53:36;;;;;;;8.30;5.83;;;13.70;99.90;13.30;100236.00;;;;4932815;28;88858;-69
2023/02/23 10:56:09;;;;;;;10.17;6.27;;;13.30;99.90;13.30;100225.00;;;;4929362;28;88053;-69
2023/02/23 10:58:56;;;;;;;8.47;5.30;;;13.30;99.90;13.20;100222.00;;;;4907607;28;89553;-69
2023/02/23 11:01:45;;;;;;;7.93;5.00;;;13.30;99.90;13.20;100220.00;;;;4909752;28;104254;-69
2023/02/23 11:04:33;;;;;;;7.63;4.90;;;13.20;99.90;13.20;100218.00;;;;4912945;28;87974;-71
2023/02/23 11:07:21;;;;;;;6.97;4.37;;;13.20;99.90;13.20;100222.00;;;;4914485;28;88174;-69
2023/02/23 11:09:47;;;;;;;5.73;3.97;;;13.20;99.90;13.30;100223.00;;;;4926684;28;88087;-68
2023/02/23 11:12:36;;;;;;;6.47;5.03;;;13.20;99.90;13.30;100225.00;;;;4930153;28;110149;-69
2023/02/23 11:15:27;;;;;;;9.13;6.27;;;13.30;99.90;13.20;100216.00;;;;4909223;28;87924;-69
2023/02/23 11:18:02;;;;;;;7.38;5.00;;;13.30;99.90;13.30;100216.00;;;;4928871;28;88281;-70
2023/02/23 11:20:37;;;;;;;8.27;4.87;;;13.30;99.90;13.30;100216.00;;;;4926552;28;89063;-71
2023/02/23 11:23:27;;;;;;;9.07;5.23;;;13.30;99.90;13.30;100206.00;;;;4911574;28;88339;-69
2023/02/23 11:25:58;;;;;;;11.10;5.95;;;13.30;99.90;13.40;100206.00;;;;4911241;28;87829;-68
2023/02/23 11:28:46;;;;;;;15.82;5.20;;;13.40;99.90;13.40;100208.00;;;;4929380;28;88795;-70
2023/02/23 11:31:19;;;;;;;6.57;4.85;;;13.40;99.90;13.50;100206.00;;;;4914669;28;110658;-69
2023/02/23 11:33:46;;;;;;;6.13;5.20;;;13.40;99.90;13.50;100203.00;;;;4928312;28;87955;-68
2023/02/23 11:36:27;;;;;;;8.83;5.50;;;13.50;99.90;13.50;100194.00;;;;4928135;28;108810;-70
2023/02/23 11:39:18;;;;;;;9.43;6.00;;;13.50;99.90;13.60;100194.00;;;;4915385;28;87506;-70
2023/02/23 11:41:44;;;;;;;7.97;4.82;;;13.60;99.90;13.70;100187.00;;;;4929717;28;87818;-70
2023/02/23 11:44:22;;;;;;;10.80;6.40;;;13.70;99.90;13.80;100191.00;;;;4932782;28;109417;-68
2023/02/23 11:46:50;;;;;;;9.10;5.88;;;13.70;99.90;13.80;100187.00;;;;4929344;28;89505;-68
2023/02/23 11:49:35;;;;;;;6.47;5.55;;;13.80;99.90;13.90;100181.00;;;;4911498;28;88282;-68
2023/02/23 11:52:02;;;;;;;8.90;6.13;;;13.80;99.90;14.00;100179.00;;;;4929874;28;88026;-71
2023/02/23 11:54:33;;;;;;;8.93;6.50;;;13.90;99.90;14.00;100171.00;;;;4927245;28;109367;-68
2023/02/23 11:57:01;;;;;;;11.32;5.80;;;13.90;99.90;14.00;100173.00;;;;4927394;28;88164;-68
2023/02/23 11:59:37;;;;;;;7.68;5.35;;;14.00;99.90;14.10;100181.00;;;;4933448;28;88233;-68
2023/02/23 12:02:25;;;;;;;9.73;5.60;;;14.00;99.90;14.10;100179.00;;;;4929904;28;87802;-68
2023/02/23 12:05:16;;;;;;;8.23;5.50;;;14.10;99.90;14.20;100175.00;;;;4916237;28;87357;-68
2023/02/23 12:08:09;;;;;;;13.55;5.38;;;14.10;99.90;14.30;100175.00;;;;4927975;28;95995;-68
2023/02/23 12:10:41;;;;;;;9.00;5.38;;;14.20;99.90;14.40;100172.00;;;;4926380;28;110917;-67
2023/02/23 12:13:06;;;;;;;8.63;5.75;;;14.30;99.90;14.50;100166.00;;;;4910948;28;99834;-67
2023/02/23 12:15:45;;;;;;;8.77;6.20;;;14.40;99.90;14.60;100169.00;;;;4929836;28;110556;-68
2023/02/23 12:18:32;;;;;;;12.75;5.50;;;14.50;99.90;14.70;100167.00;;;;4929101;28;101759;-69
2023/02/23 12:21:14;;;;;;;12.07;4.57;;;14.60;99.90;14.70;100177.00;;;;4913427;28;87982;-68
2023/02/23 12:23:45;;;;;;;8.57;5.35;;;14.60;99.90;14.80;100163.00;;;;4911723;28;88738;-69
2023/02/23 12:26:21;;;;;;;13.40;5.57;;;14.70;99.90;15.00;100169.00;;;;4930804;28;88044;-69
2023/02/23 12:28:53;;;;;;;9.98;5.63;;;14.90;99.90;15.20;100170.00;;;;4932200;28;88099;-70
2023/02/23 12:31:48;;;;;;;9.18;5.55;;;15.10;99.90;15.40;100162.00;;;;4931144;28;87402;-68